Grouse Creek, UT (84313)

1:35 PM MDT on July 04, 2015 (GMT -0600)
MesoWest | | Change Station
CLOSE
Current Station
Personal Weather Station
Location: Grouse Creek, UT
Elevation: 5744 ft
Nearby Weather Stations

Elev 5744 ft 41.53 °N, 113.70 °W | Updated 20 minutes ago

Clear
Clear
89 °F
Feels Like 85 °F
N
7
Wind Variable Wind from East
Gusts 12.0 mph

Today
High -- | Low -- °F
--% Chance of Precip.
Yesterday
High -- | Low -- °F
Precip. -- in
6:06 AM 9:11 PM
Waning Gibbous, 90% visible
Pressure 28.81 in
Visibility 10.0 miles
Clouds Clear
Heat Index 85 °F
Dew Point 37 °F
Humidity 16%
Rainfall in
Snow Depth Not available.
UV 12 out of 12
Pollen 6.80 out of 12
Air Quality Not available.
Flu Activity Not available.
METAR KU16 041858Z AUTO 36007KT 10SM CLR 36/03 A2991 RMK AO2 SLP754 T03560028 $

More Conditions Fewer Conditions

Pressure 28.81 in
Visibility 10.0 miles
Clouds Clear
Heat Index 85 °F
Dew Point 37 °F
Humidity 16%
Rainfall in
Snow Depth Not available.
UV 12 out of 12
Pollen 6.80 out of 12
Air Quality Not available.
Flu Activity Not available.
METAR KU16 041858Z AUTO 36007KT 10SM CLR 36/03 A2991 RMK AO2 SLP754 T03560028 $

More Conditions Fewer Conditions

Nowcast | as of 1:34 PM MDT on July 4, 2015

Scattered showers and isolated thunderstorms will continue to develop over portions of northern Utah and southwest Wyoming this afternoon. The strongest storms at 120 PM were located just northwest of Evanston Wyoming and in southern Duchesne County. Some of these storms will produce brief heavy rain...small hail...dangerous lightning....and gusty winds.

×

10-Day Weather Forecast

×

Almanac

Astronomy

Jul. 04, 2015 Rise Set
Actual Time
Civil Twilight
Nautical Twilight
Astronomical Twilight
Moon
Length of Visible Light
Length of Day
Tomorrow will be .
, % of the Moon is Illuminated

Today's Extremes

State Highs State Lows

Community

WunderPhotos

Upload Photos

1,835,065 photos uploaded!

WunderBlogs® & News

Nearby

Air Quality

  Air Quality AQ Index Pollutant
Not available.

Snow Depth

Station Depth Elevation

Earthquake Activity

City Distance Mag. Time & Date
Minimum magnitude displayed is 2.5.

Coastal Water Temperatures

Place Temperature

Stations

Nearby Weather Stations

Station Location Temp. Windchill Dew Point Humidity Wind Precip. Elev Updated Type